Time;durP1;ratioP1;P1;durP2;ratioP2;P2;SDS_P1;SDS_P2;PMS_P1;PMS_P2;Temp;Humidity;BMP_temperature;BMP_pressure;BME280_temperature;BME280_humidity;BME280_pressure;Samples;Min_cycle;Max_cycle;Signal;HPM_P1;HPM_P2
2023/03/06 00:00:02;;;;;;;4.30;2.23;;;;;;;3.70;82.09;99899.69;5056772;28;20229;-80
2023/03/06 00:02:28;;;;;;;4.73;2.57;;;;;;;3.68;81.44;99906.56;5057784;28;20208;-80
2023/03/06 00:04:55;;;;;;;2.40;2.20;;;;;;;3.65;81.83;99909.13;5057739;28;20207;-80
2023/03/06 00:07:21;;;;;;;3.60;2.37;;;;;;;3.61;81.85;99915.16;5058431;28;20199;-80
2023/03/06 00:09:47;;;;;;;4.03;2.30;;;;;;;3.53;81.88;99916.03;5058558;28;20211;-80
2023/03/06 00:12:14;;;;;;;2.30;2.10;;;;;;;3.53;81.77;99916.03;5057596;28;20200;-81
2023/03/06 00:14:42;;;;;;;3.00;2.30;;;;;;;3.48;81.50;99916.88;5056395;28;20222;-80
2023/03/06 00:17:08;;;;;;;2.37;2.23;;;;;;;3.42;82.00;99916.84;5051140;28;20253;-80
2023/03/06 00:19:34;;;;;;;2.77;2.27;;;;;;;3.33;81.96;99921.16;5057496;28;20224;-80
2023/03/06 00:22:02;;;;;;;2.77;2.30;;;;;;;3.40;82.42;99903.09;5057431;28;20208;-81
2023/03/06 00:24:28;;;;;;;3.27;2.77;;;;;;;3.18;82.39;99908.22;5057318;28;20880;-79
2023/03/06 00:26:55;;;;;;;3.20;2.50;;;;;;;3.26;82.94;99879.88;5056447;28;20203;-80
2023/03/06 00:29:21;;;;;;;2.87;2.50;;;;;;;3.12;83.28;99872.09;5057202;28;20222;-80
2023/03/06 00:31:49;;;;;;;4.40;2.13;;;;;;;3.34;82.88;99855.78;5057885;28;20207;-81
2023/03/06 00:34:15;;;;;;;2.90;2.43;;;;;;;3.40;82.77;99856.66;5057351;28;20227;-80
2023/03/06 00:36:42;;;;;;;2.83;2.50;;;;;;;3.47;82.43;99853.22;5057413;28;20335;-80
2023/03/06 00:39:08;;;;;;;3.33;2.83;;;;;;;3.46;82.16;99854.94;5057250;28;20278;-80
2023/03/06 00:41:34;;;;;;;4.30;2.60;;;;;;;3.47;82.40;99859.25;5057361;28;20201;-80
2023/03/06 00:44:01;;;;;;;3.77;2.77;;;;;;;3.55;82.02;99854.09;5055490;28;20203;-79
2023/03/06 00:46:27;;;;;;;4.70;2.70;;;;;;;3.53;81.72;99859.25;5045120;28;20208;-80
2023/03/06 00:48:55;;;;;;;3.13;2.73;;;;;;;3.52;81.92;99859.25;5050921;28;20292;-80
2023/03/06 00:51:21;;;;;;;3.63;2.83;;;;;;;3.52;82.19;99860.09;5033228;28;20666;-79
2023/03/06 00:53:48;;;;;;;4.23;2.80;;;;;;;3.58;81.63;99864.41;5031843;28;20274;-79
2023/03/06 00:56:14;;;;;;;3.30;2.50;;;;;;;3.53;81.74;99860.97;5031708;28;20748;-80
2023/03/06 00:58:40;;;;;;;3.33;3.03;;;;;;;3.50;81.87;99858.38;5031143;28;20709;-79
2023/03/06 01:01:07;;;;;;;5.00;3.20;;;;;;;3.30;82.36;99854.06;5031593;28;20208;-78
2023/03/06 01:03:33;;;;;;;3.83;3.43;;;;;;;3.39;82.58;99830.00;5031591;28;20251;-80
2023/03/06 01:06:01;;;;;;;5.73;3.40;;;;;;;3.34;82.80;99823.97;5031463;28;20683;-79
2023/03/06 01:08:27;;;;;;;3.90;3.50;;;;;;;3.34;82.90;99821.41;5031718;28;20630;-80
2023/03/06 01:10:54;;;;;;;4.23;3.93;;;;;;;3.37;82.79;99811.09;5032970;28;20673;-78
2023/03/06 01:13:20;;;;;;;5.43;3.90;;;;;;;3.36;82.48;99814.53;5035823;28;20269;-77
2023/03/06 01:15:46;;;;;;;5.30;4.20;;;;;;;3.42;82.50;99817.09;5035671;28;20208;-79
2023/03/06 01:18:13;;;;;;;4.37;3.93;;;;;;;3.38;82.19;99817.97;5050277;28;20218;-80
2023/03/06 01:20:39;;;;;;;5.10;4.27;;;;;;;3.38;82.64;99818.81;5055640;28;20277;-78
2023/03/06 01:23:07;;;;;;;5.20;4.63;;;;;;;3.38;82.72;99810.22;5055982;28;20685;-78
2023/03/06 01:25:33;;;;;;;6.33;4.00;;;;;;;3.30;82.99;99806.78;5055801;28;20207;-80
2023/03/06 01:27:59;;;;;;;4.97;4.00;;;;;;;3.28;82.85;99811.09;5056142;28;20222;-79
2023/03/06 01:30:27;;;;;;;4.67;4.20;;;;;;;3.30;82.95;99801.63;5056340;28;20200;-79
2023/03/06 01:32:53;;;;;;;4.63;3.90;;;;;;;3.38;82.98;99800.75;5056286;28;20254;-79
2023/03/06 01:35:20;;;;;;;5.33;4.00;;;;;;;3.33;82.88;99794.75;5056313;28;20205;-79
2023/03/06 01:37:46;;;;;;;5.10;3.60;;;;;;;3.45;83.07;99796.47;5056351;28;20224;-80
2023/03/06 01:40:14;;;;;;;6.53;4.83;;;;;;;3.42;82.49;99808.50;5056208;28;20629;-80
2023/03/06 01:42:42;;;;;;;5.93;4.57;;;;;;;3.38;83.17;99811.06;5056623;28;20210;-80
2023/03/06 01:45:47;;;;;;;6.00;5.10;;;;;;;3.42;83.29;99804.19;5056650;28;20230;-79
2023/03/06 01:48:14;;;;;;;5.80;4.53;;;;;;;3.45;82.50;99795.59;5045988;28;20224;-80
2023/03/06 01:50:40;;;;;;;4.93;4.43;;;;;;;3.40;82.84;99799.91;5056508;28;20203;-81
2023/03/06 01:53:07;;;;;;;5.63;5.07;;;;;;;3.39;83.41;99791.31;5056533;28;20210;-80
2023/03/06 01:55:36;;;;;;;6.83;6.23;;;;;;;3.36;83.22;99784.41;5056314;28;20665;-79
2023/03/06 01:58:06;;;;;;;8.43;6.10;;;;;;;3.38;83.24;99772.38;5056697;28;20225;-79
2023/03/06 02:00:33;;;;;;;6.30;5.67;;;;;;;3.16;83.78;99765.50;5056344;28;20207;-79
2023/03/06 02:03:06;;;;;;;6.47;5.87;;;;;;;3.29;84.09;99750.88;5056752;28;20260;-79
2023/03/06 02:05:33;;;;;;;8.60;7.70;;;;;;;2.82;85.27;99736.28;5056372;28;20204;-78
2023/03/06 02:07:59;;;;;;;7.17;6.57;;;;;;;2.94;86.13;99701.06;5056313;28;20224;-79
2023/03/06 02:10:26;;;;;;;7.70;6.70;;;;;;;2.88;85.80;99687.31;5056456;28;20203;-79
2023/03/06 02:12:54;;;;;;;11.23;7.67;;;;;;;3.03;85.59;99679.56;5056320;28;20201;-80
2023/03/06 02:15:24;;;;;;;8.30;7.53;;;;;;;3.12;85.23;99674.41;5056448;28;20219;-80
2023/03/06 02:17:51;;;;;;;7.97;7.17;;;;;;;3.22;84.60;99682.13;5050087;28;20211;-80
2023/03/06 02:20:24;;;;;;;7.53;6.80;;;;;;;3.25;84.65;99695.00;5057262;28;20226;-80
2023/03/06 02:22:56;;;;;;;11.57;7.93;;;;;;;3.26;84.17;99702.75;5056596;28;20283;-81
2023/03/06 02:25:33;;;;;;;8.33;7.47;;;;;;;3.26;83.89;99704.47;5056849;28;20207;-80
2023/03/06 02:27:59;;;;;;;6.43;5.77;;;;;;;3.26;83.57;99717.38;5057662;28;20232;-79
2023/03/06 02:30:28;;;;;;;9.20;7.53;;;;;;;3.21;84.04;99714.81;5057062;28;20203;-80
2023/03/06 02:32:55;;;;;;;7.70;6.60;;;;;;;3.22;84.08;99715.66;5056818;28;20201;-80
2023/03/06 02:35:23;;;;;;;7.93;7.00;;;;;;;3.05;83.97;99716.50;5057045;28;20284;-79
2023/03/06 02:37:50;;;;;;;9.60;7.33;;;;;;;2.83;84.48;99705.34;5057007;28;20283;-80
2023/03/06 02:40:18;;;;;;;8.37;7.57;;;;;;;2.69;85.87;99678.72;5056388;28;20208;-80
2023/03/06 02:42:48;;;;;;;7.97;7.17;;;;;;;2.69;85.83;99663.25;5056348;28;20274;-80
2023/03/06 02:45:20;;;;;;;7.20;6.50;;;;;;;2.69;86.21;99652.94;5056852;28;20534;-80
2023/03/06 02:47:46;;;;;;;7.87;7.07;;;;;;;2.76;86.38;99634.91;5049590;28;20656;-79
2023/03/06 02:50:12;;;;;;;7.60;6.90;;;;;;;2.70;86.59;99627.19;5056924;28;20199;-81
2023/03/06 02:52:39;;;;;;;8.30;6.90;;;;;;;2.75;86.37;99622.88;5056636;28;20272;-80
2023/03/06 02:55:06;;;;;;;7.60;6.80;;;;;;;2.82;86.17;99623.75;5056803;28;20221;-80
2023/03/06 02:57:33;;;;;;;10.43;7.90;;;;;;;2.85;85.31;99630.59;5056062;28;20289;-80
2023/03/06 03:00:00;;;;;;;8.50;7.17;;;;;;;2.91;85.53;99638.31;5057110;28;20581;-80
2023/03/06 03:02:27;;;;;;;8.37;7.57;;;;;;;2.87;85.41;99641.75;5056904;28;20203;-80
2023/03/06 03:04:53;;;;;;;7.30;6.60;;;;;;;2.88;85.71;99639.19;5056876;28;20612;-80
2023/03/06 03:07:19;;;;;;;8.50;7.60;;;;;;;2.84;85.96;99637.47;5056965;28;20206;-79
2023/03/06 03:09:46;;;;;;;7.63;6.93;;;;;;;2.88;85.69;99634.03;5057178;28;20232;-80
2023/03/06 03:12:12;;;;;;;9.20;7.40;;;;;;;2.87;85.39;99642.63;5057111;28;20210;-80
2023/03/06 03:14:38;;;;;;;7.43;6.60;;;;;;;2.85;85.71;99635.75;5056672;28;20219;-79
2023/03/06 03:17:06;;;;;;;8.13;7.30;;;;;;;2.63;85.37;99640.91;5049976;28;20253;-80
2023/03/06 03:19:32;;;;;;;7.83;7.03;;;;;;;2.65;85.70;99628.88;5056879;28;20225;-79
2023/03/06 03:21:59;;;;;;;9.43;6.57;;;;;;;2.66;85.75;99615.16;5056651;28;20200;-80
2023/03/06 03:24:25;;;;;;;8.67;7.40;;;;;;;2.58;85.72;99611.72;5056257;28;20203;-79
2023/03/06 03:26:52;;;;;;;8.33;7.53;;;;;;;2.35;86.71;99607.41;5055832;28;20552;-79
2023/03/06 03:29:19;;;;;;;10.17;7.20;;;;;;;2.38;87.51;99578.25;5057020;28;20703;-80
2023/03/06 03:31:45;;;;;;;8.13;7.33;;;;;;;2.30;88.41;99559.31;5056668;28;20673;-80
2023/03/06 03:34:13;;;;;;;8.80;7.30;;;;;;;2.40;88.11;99548.19;5056223;28;20275;-80
2023/03/06 03:36:39;;;;;;;7.50;6.77;;;;;;;2.43;88.35;99535.31;5056786;28;20204;-80
2023/03/06 03:39:06;;;;;;;8.67;7.73;;;;;;;2.50;87.70;99536.19;5055909;28;20224;-79
2023/03/06 03:41:33;;;;;;;8.17;7.07;;;;;;;2.49;87.89;99547.31;5056504;28;20207;-79
2023/03/06 03:43:59;;;;;;;8.27;7.57;;;;;;;2.53;87.75;99542.16;5056136;28;20198;-81
2023/03/06 03:46:27;;;;;;;10.17;7.73;;;;;;;2.25;88.54;99538.75;5048584;28;20216;-79
2023/03/06 03:48:53;;;;;;;8.97;8.07;;;;;;;2.03;88.90;99521.56;5055519;28;20259;-80
2023/03/06 03:51:21;;;;;;;9.97;7.33;;;;;;;2.21;89.15;99500.97;5055804;28;20206;-80
2023/03/06 03:53:48;;;;;;;8.93;8.10;;;;;;;2.09;89.77;99493.25;5055694;28;20209;-79
2023/03/06 03:56:14;;;;;;;9.40;7.90;;;;;;;2.23;89.65;99482.97;5055255;28;20260;-79
2023/03/06 03:58:40;;;;;;;9.33;8.17;;;;;;;2.24;89.36;99474.38;5056008;28;20225;-80
2023/03/06 04:01:07;;;;;;;8.90;8.00;;;;;;;2.38;89.66;99478.66;5055154;28;20199;-79
2023/03/06 04:03:34;;;;;;;8.77;7.57;;;;;;;2.49;89.21;99480.34;5054868;28;20205;-79
2023/03/06 04:06:00;;;;;;;8.37;7.57;;;;;;;2.48;88.41;99488.94;5054435;28;20208;-80
2023/03/06 04:08:28;;;;;;;10.50;8.20;;;;;;;2.40;88.29;99494.13;5054414;28;20225;-79
2023/03/06 04:10:55;;;;;;;8.87;7.97;;;;;;;2.40;88.66;99491.53;5055621;28;20251;-80
2023/03/06 04:13:22;;;;;;;9.17;8.27;;;;;;;2.43;88.89;99486.38;5056342;28;20206;-81
2023/03/06 04:15:49;;;;;;;9.37;7.93;;;;;;;2.52;89.03;99486.38;5054869;28;20270;-80
2023/03/06 04:18:16;;;;;;;7.93;7.13;;;;;;;2.63;88.66;99480.31;5051183;28;20224;-80
2023/03/06 04:20:42;;;;;;;8.73;7.83;;;;;;;2.66;88.73;99470.88;5056179;28;20232;-81
2023/03/06 04:23:09;;;;;;;10.30;9.27;;;;;;;2.52;88.53;99473.47;5056224;28;20225;-81
2023/03/06 04:25:36;;;;;;;12.40;10.00;;;;;;;2.56;88.55;99477.75;5056190;28;20627;-80
2023/03/06 04:28:03;;;;;;;10.73;9.60;;;;;;;2.63;88.27;99481.19;5056791;28;20227;-78
2023/03/06 04:30:30;;;;;;;10.40;9.40;;;;;;;2.70;88.38;99482.88;5056308;28;20200;-81
2023/03/06 04:32:56;;;;;;;9.40;8.17;;;;;;;2.72;88.81;99476.00;5056843;28;20755;-81
2023/03/06 04:35:22;;;;;;;9.90;8.93;;;;;;;2.74;88.50;99483.75;5056523;28;20218;-81
2023/03/06 04:37:49;;;;;;;8.83;7.93;;;;;;;2.67;88.55;99475.16;5056952;28;20575;-80
2023/03/06 04:40:18;;;;;;;8.83;7.93;;;;;;;2.76;88.43;99477.72;5056717;28;20659;-80
2023/03/06 04:42:46;;;;;;;12.73;11.33;;;;;;;2.52;89.20;99476.06;5056800;28;20736;-81
2023/03/06 04:45:12;;;;;;;9.10;8.30;;;;;;;2.64;88.97;99462.28;5058103;28;20306;-80
2023/03/06 04:47:38;;;;;;;10.20;9.20;;;;;;;2.66;89.20;99460.56;5052549;28;20230;-81
2023/03/06 04:50:06;;;;;;;10.03;9.10;;;;;;;2.68;89.39;99456.28;5060678;28;20571;-81
2023/03/06 04:52:32;;;;;;;9.00;8.10;;;;;;;2.70;88.55;99458.84;5060234;28;20205;-80
2023/03/06 04:54:59;;;;;;;9.60;8.60;;;;;;;2.66;88.97;99470.88;5060977;28;20221;-80
2023/03/06 04:57:25;;;;;;;10.90;9.97;;;;;;;2.70;88.21;99469.16;5061142;28;20206;-81
2023/03/06 04:59:53;;;;;;;13.20;11.80;;;;;;;2.60;89.37;99460.59;5059819;28;20211;-81
2023/03/06 05:02:19;;;;;;;11.93;10.03;;;;;;;2.66;89.29;99449.41;5060128;28;20203;-80
2023/03/06 05:04:46;;;;;;;10.87;9.93;;;;;;;2.69;88.95;99447.66;5059930;28;20207;-81
2023/03/06 05:07:12;;;;;;;14.20;12.80;;;;;;;2.68;88.84;99453.69;5060307;28;20235;-81
2023/03/06 05:09:38;;;;;;;16.30;13.20;;;;;;;2.58;89.16;99450.28;5059434;28;20213;-80
2023/03/06 05:12:05;;;;;;;12.73;11.53;;;;;;;2.58;89.80;99434.81;5060351;28;20229;-80
2023/03/06 05:14:32;;;;;;;20.40;16.47;;;;;;;2.43;90.53;99427.13;5059350;28;20223;-81
2023/03/06 05:17:00;;;;;;;13.53;12.23;;;;;;;2.52;90.51;99419.41;5052974;28;20195;-81
2023/03/06 05:19:26;;;;;;;14.03;12.57;;;;;;;2.56;90.57;99413.38;5059603;28;20248;-80
2023/03/06 05:21:52;;;;;;;13.30;12.00;;;;;;;2.56;90.01;99415.09;5059070;28;20731;-80
2023/03/06 05:24:19;;;;;;;13.03;11.73;;;;;;;2.57;89.84;99415.06;5059798;28;20198;-79
2023/03/06 05:26:45;;;;;;;17.23;15.47;;;;;;;2.53;90.71;99407.38;5059947;28;20206;-80
2023/03/06 05:29:11;;;;;;;16.30;14.73;;;;;;;2.51;90.45;99397.06;5059823;28;20226;-80
2023/03/06 05:31:38;;;;;;;15.97;14.37;;;;;;;2.55;90.69;99398.75;5059652;28;20202;-81
2023/03/06 05:34:05;;;;;;;19.23;15.83;;;;;;;2.64;90.37;99402.19;5059487;28;20661;-80
2023/03/06 05:36:32;;;;;;;15.83;14.40;;;;;;;2.63;90.27;99408.19;5059196;28;20232;-81
2023/03/06 05:38:58;;;;;;;19.97;17.87;;;;;;;2.50;90.35;99421.13;5059404;28;20225;-79
2023/03/06 05:41:24;;;;;;;18.00;16.10;;;;;;;2.54;90.61;99398.78;5032504;28;20198;-80
2023/03/06 05:43:53;;;;;;;18.30;16.40;;;;;;;2.53;90.90;99394.47;5027827;28;20234;-79
2023/03/06 05:46:19;;;;;;;18.97;17.03;;;;;;;2.33;92.15;99379.94;5029367;28;20212;-80
2023/03/06 05:48:46;;;;;;;18.30;16.40;;;;;;;2.28;92.25;99361.09;5032798;28;20234;-81
2023/03/06 05:51:14;;;;;;;17.93;16.10;;;;;;;2.31;92.97;99344.78;5027321;28;20565;-80
2023/03/06 05:53:40;;;;;;;18.43;15.97;;;;;;;2.27;93.18;99325.91;5019241;28;20206;-80
2023/03/06 05:56:09;;;;;;;17.43;15.53;;;;;;;2.22;93.06;99319.03;5018489;28;20224;-79
2023/03/06 05:58:35;;;;;;;17.90;16.17;;;;;;;2.06;94.74;99302.78;5023004;28;20222;-80
2023/03/06 06:01:09;;;;;;;24.13;18.47;;;;;;;2.19;94.15;99294.16;5028408;28;20203;-79
2023/03/06 06:03:35;;;;;;;18.73;16.30;;;;;;;2.06;94.71;99284.78;5028282;28;20563;-81
2023/03/06 06:06:03;;;;;;;17.67;15.80;;;;;;;2.18;94.51;99275.31;5021827;28;20205;-79
2023/03/06 06:08:31;;;;;;;19.70;16.77;;;;;;;2.05;95.08;99281.34;5018180;28;20270;-81
2023/03/06 06:10:57;;;;;;;17.77;15.97;;;;;;;2.08;95.19;99265.91;5022623;28;20265;-80
2023/03/06 06:13:24;;;;;;;21.13;15.33;;;;;;;2.18;95.25;99259.84;5037955;28;20869;-80
2023/03/06 06:15:50;;;;;;;18.07;16.10;;;;;;;2.24;94.22;99269.28;5037841;28;20222;-79
2023/03/06 06:18:16;;;;;;;16.77;14.90;;;;;;;2.41;93.99;99270.91;5052860;28;20217;-81
2023/03/06 06:20:43;;;;;;;16.10;14.40;;;;;;;2.24;93.67;99276.13;5058023;28;20201;-81
2023/03/06 06:23:10;;;;;;;18.10;15.73;;;;;;;2.35;93.53;99282.09;5058031;28;20622;-79
2023/03/06 06:25:37;;;;;;;15.87;14.27;;;;;;;2.33;93.63;99284.66;5057492;28;20201;-78
2023/03/06 06:28:05;;;;;;;15.67;14.17;;;;;;;2.21;93.37;99289.88;5056079;28;20218;-80
2023/03/06 06:30:32;;;;;;;17.30;14.73;;;;;;;2.35;93.71;99292.41;5056559;28;20738;-80
2023/03/06 06:32:59;;;;;;;18.10;15.97;;;;;;;2.48;93.60;99290.59;5058018;28;20206;-80
2023/03/06 06:35:26;;;;;;;17.33;14.57;;;;;;;2.55;93.57;99297.44;5057512;28;20248;-80
2023/03/06 06:37:52;;;;;;;18.33;15.53;;;;;;;2.56;92.60;99309.47;5056980;28;20765;-81
2023/03/06 06:40:19;;;;;;;21.13;14.80;;;;;;;2.62;92.32;99314.59;5051068;28;20247;-78
2023/03/06 06:42:47;;;;;;;16.30;14.60;;;;;;;2.72;91.99;99333.44;5026624;28;20569;-80
2023/03/06 06:45:13;;;;;;;18.23;16.33;;;;;;;2.63;91.88;99346.38;5025753;28;20187;-80
2023/03/06 06:47:40;;;;;;;18.77;15.23;;;;;;;2.75;91.90;99348.88;5043420;28;20237;-80
2023/03/06 06:50:08;;;;;;;20.50;16.47;;;;;;;2.83;91.62;99357.41;5057432;28;20210;-81
2023/03/06 06:52:34;;;;;;;17.73;15.37;;;;;;;2.92;91.05;99374.56;5057294;28;20616;-80
2023/03/06 06:55:01;;;;;;;19.80;16.53;;;;;;;2.81;90.76;99378.91;5054716;28;20218;-79
2023/03/06 06:57:27;;;;;;;23.60;16.63;;;;;;;2.41;93.88;99358.47;5026726;28;20221;-80
2023/03/06 06:59:55;;;;;;;17.47;15.23;;;;;;;2.49;94.73;99302.63;5028337;28;20199;-79
2023/03/06 07:02:22;;;;;;;17.27;14.83;;;;;;;2.32;94.68;99301.00;5027147;28;20227;-80
2023/03/06 07:04:49;;;;;;;15.90;14.40;;;;;;;2.32;94.96;99280.41;5026009;28;20199;-79
2023/03/06 07:07:15;;;;;;;16.53;14.73;;;;;;;2.33;94.56;99283.81;5026132;28;20278;-79
2023/03/06 07:09:42;;;;;;;17.80;14.43;;;;;;;2.50;95.54;99273.47;5026017;28;20604;-80
2023/03/06 07:12:09;;;;;;;19.30;14.27;;;;;;;2.42;94.11;99286.38;5027845;28;20200;-81
2023/03/06 07:14:36;;;;;;;20.13;13.03;;;;;;;2.49;94.08;99282.03;5025218;28;20195;-80
2023/03/06 07:17:03;;;;;;;15.53;12.70;;;;;;;2.44;93.98;99294.94;5028092;28;20673;-80
2023/03/06 07:19:30;;;;;;;13.20;11.90;;;;;;;2.62;94.70;99286.25;5030712;28;20226;-79
2023/03/06 07:21:56;;;;;;;13.80;12.40;;;;;;;2.67;93.63;99299.09;5026424;28;20204;-80
2023/03/06 07:24:22;;;;;;;14.10;12.50;;;;;;;2.80;93.50;99311.06;5027475;28;20206;-80
2023/03/06 07:26:49;;;;;;;16.93;13.60;;;;;;;2.45;93.05;99321.53;5026356;28;20222;-77
2023/03/06 07:29:15;;;;;;;17.13;15.03;;;;;;;2.45;93.33;99312.09;5027300;28;20224;-80
2023/03/06 07:31:42;;;;;;;14.37;13.07;;;;;;;2.57;94.38;99313.75;5026725;28;20199;-78
2023/03/06 07:34:13;;;;;;;13.70;12.30;;;;;;;2.58;92.83;99318.06;5024327;28;20570;-78
2023/03/06 07:36:40;;;;;;;14.73;13.13;;;;;;;2.48;93.52;99318.94;5025235;28;20281;-79
2023/03/06 07:39:06;;;;;;;13.43;12.20;;;;;;;2.43;93.53;99326.69;5028454;28;20222;-79
2023/03/06 07:41:33;;;;;;;13.23;12.00;;;;;;;2.49;92.94;99328.38;5027562;28;20198;-79
2023/03/06 07:43:59;;;;;;;11.60;10.40;;;;;;;2.39;91.98;99343.03;5016481;28;20206;-79
2023/03/06 07:46:25;;;;;;;12.70;11.40;;;;;;;2.51;92.60;99335.25;5021195;28;20212;-79
2023/03/06 07:48:52;;;;;;;12.67;11.40;;;;;;;2.50;92.80;99336.13;5038716;28;20710;-80
2023/03/06 07:51:21;;;;;;;12.47;11.27;;;;;;;2.50;92.66;99338.69;5056246;28;20256;-79
2023/03/06 07:53:49;;;;;;;12.50;11.30;;;;;;;2.45;92.69;99353.28;5057025;28;20206;-79
2023/03/06 07:56:16;;;;;;;11.97;10.57;;;;;;;2.56;92.58;99356.69;5056444;28;20244;-80
2023/03/06 07:58:44;;;;;;;11.90;10.80;;;;;;;2.58;92.35;99354.13;5029926;28;20269;-78
2023/03/06 08:01:13;;;;;;;11.13;10.03;;;;;;;2.45;91.81;99367.91;5025979;28;20222;-80
2023/03/06 08:03:39;;;;;;;11.80;10.70;;;;;;;2.59;92.29;99360.97;5032294;28;20198;-79
2023/03/06 08:06:08;;;;;;;11.03;10.10;;;;;;;2.79;91.37;99371.19;5037431;28;20222;-80
2023/03/06 08:08:38;;;;;;;11.03;10.10;;;;;;;2.80;91.54;99388.38;5037272;28;20629;-79
2023/03/06 08:11:04;;;;;;;11.57;10.47;;;;;;;2.74;90.80;99399.56;5036865;28;20202;-81
2023/03/06 08:13:31;;;;;;;11.77;10.57;;;;;;;2.71;90.85;99414.16;5036507;28;20259;-80
2023/03/06 08:15:58;;;;;;;11.07;9.90;;;;;;;2.66;91.02;99410.78;5036200;28;20218;-81
2023/03/06 08:18:25;;;;;;;13.23;9.33;;;;;;;2.74;90.99;99407.28;5051991;28;20242;-80
2023/03/06 08:21:01;;;;;;;14.00;9.33;;;;;;;2.90;90.58;99415.81;5061654;28;20224;-78
2023/03/06 08:23:27;;;;;;;10.77;9.07;;;;;;;3.04;89.93;99422.63;5062854;28;20661;-79
2023/03/06 08:25:57;;;;;;;9.50;8.57;;;;;;;3.24;89.92;99425.97;5062882;28;20206;-80
2023/03/06 08:28:23;;;;;;;9.50;8.70;;;;;;;3.34;88.70;99457.72;5062960;28;20225;-80
2023/03/06 08:30:49;;;;;;;10.60;9.70;;;;;;;2.98;88.82;99480.22;5061921;28;20234;-81
2023/03/06 08:33:16;;;;;;;10.30;9.30;;;;;;;2.92;90.12;99469.94;5033931;28;20206;-79
2023/03/06 08:35:42;;;;;;;9.90;8.90;;;;;;;2.94;90.22;99450.16;5030877;28;20604;-80
2023/03/06 08:38:08;;;;;;;10.67;9.67;;;;;;;2.91;89.86;99440.72;5024005;28;20219;-80
2023/03/06 08:40:35;;;;;;;10.30;9.30;;;;;;;2.79;90.61;99438.19;5021914;28;20205;-80
2023/03/06 08:43:02;;;;;;;9.60;8.70;;;;;;;2.86;91.15;99421.84;5022372;28;20277;-82
2023/03/06 08:45:29;;;;;;;9.93;8.90;;;;;;;2.85;90.55;99417.53;5022421;28;20568;-80
2023/03/06 08:47:55;;;;;;;9.93;8.93;;;;;;;2.93;90.96;99413.25;5053197;28;20711;-81
2023/03/06 08:50:21;;;;;;;12.23;9.60;;;;;;;2.99;90.41;99409.75;5062085;28;20733;-81
2023/03/06 08:52:48;;;;;;;11.33;9.37;;;;;;;3.15;90.28;99424.28;5060917;28;20803;-79
2023/03/06 08:55:14;;;;;;;10.57;9.47;;;;;;;3.08;89.92;99453.53;5031975;28;20227;-80
2023/03/06 08:57:40;;;;;;;9.73;8.83;;;;;;;2.88;89.28;99470.81;5031968;28;20224;-80
2023/03/06 09:00:10;;;;;;;9.03;8.23;;;;;;;3.06;89.67;99451.84;5022536;28;20202;-80
2023/03/06 09:02:36;;;;;;;9.47;8.67;;;;;;;2.88;89.84;99471.66;5022472;28;20207;-82
2023/03/06 09:05:04;;;;;;;9.00;8.30;;;;;;;2.70;90.00;99461.44;5022546;28;20230;-80
2023/03/06 09:07:31;;;;;;;11.43;8.73;;;;;;;2.72;90.57;99442.50;5023070;28;20224;-80
2023/03/06 09:09:57;;;;;;;10.20;9.07;;;;;;;2.72;90.22;99445.09;5022443;28;20202;-78
2023/03/06 09:12:24;;;;;;;10.07;9.17;;;;;;;2.84;90.81;99430.47;5021677;28;20667;-80
2023/03/06 09:14:50;;;;;;;8.87;8.17;;;;;;;3.02;90.12;99425.22;5023000;28;20210;-80
2023/03/06 09:17:18;;;;;;;8.90;8.20;;;;;;;3.11;89.90;99438.06;5042095;28;20276;-80
2023/03/06 09:19:44;;;;;;;9.27;8.37;;;;;;;3.16;89.67;99456.09;5045789;28;20210;-80
2023/03/06 09:22:10;;;;;;;10.43;8.47;;;;;;;3.06;89.13;99462.16;5031401;28;20196;-81
2023/03/06 09:24:37;;;;;;;9.23;8.43;;;;;;;3.13;90.03;99456.97;5036902;28;20578;-83
2023/03/06 09:27:03;;;;;;;8.57;7.87;;;;;;;3.12;89.76;99460.41;5041728;28;20199;-79
2023/03/06 09:29:30;;;;;;;8.83;8.13;;;;;;;3.12;88.37;99464.69;5042095;28;20778;-82
2023/03/06 09:31:56;;;;;;;8.93;8.13;;;;;;;3.33;88.96;99463.72;5038987;28;20202;-80
2023/03/06 09:34:26;;;;;;;8.57;7.87;;;;;;;3.17;88.84;99478.41;5038900;28;20203;-79
2023/03/06 09:36:52;;;;;;;8.13;7.43;;;;;;;3.02;89.01;99488.81;5037386;28;20313;-82
2023/03/06 09:39:19;;;;;;;9.00;8.20;;;;;;;2.98;90.05;99473.34;5038345;28;20223;-79
2023/03/06 09:41:49;;;;;;;8.93;8.23;;;;;;;2.95;91.15;99446.72;5037921;28;20206;-80
2023/03/06 09:44:18;;;;;;;9.87;8.87;;;;;;;3.12;91.48;99418.28;5038607;28;20256;-80
2023/03/06 09:46:57;;;;;;;9.90;9.10;;;;;;;3.21;92.95;99382.16;5040948;28;20210;-81
2023/03/06 09:49:38;;;;;;;10.67;9.00;;;;;;;3.23;92.49;99374.38;5038316;28;20287;-80
2023/03/06 09:52:18;;;;;;;9.40;8.67;;;;;;;3.24;92.37;99370.94;5029046;28;20191;-80
2023/03/06 09:54:46;;;;;;;9.63;8.83;;;;;;;2.67;94.01;99360.94;5038621;28;20208;-81
2023/03/06 09:57:20;;;;;;;9.73;8.87;;;;;;;2.72;95.54;99318.84;5037988;28;20227;-80
2023/03/06 09:59:50;;;;;;;10.43;9.57;;;;;;;2.72;96.44;99302.53;5038707;28;20207;-80
2023/03/06 10:02:24;;;;;;;9.47;8.60;;;;;;;2.43;96.72;99272.59;5038686;28;20336;-81
2023/03/06 10:04:58;;;;;;;8.97;8.23;;;;;;;2.33;99.33;99234.91;5038134;28;20206;-79
2023/03/06 10:07:42;;;;;;;10.43;9.43;;;;;;;2.35;100.00;99190.25;5038599;28;20206;-80
2023/03/06 10:10:17;;;;;;;10.97;10.03;;;;;;;2.43;100.00;99169.59;5038572;28;20238;-79
2023/03/06 10:12:52;;;;;;;10.67;9.67;;;;;;;2.48;100.00;99157.56;5037504;28;20209;-81
2023/03/06 10:15:23;;;;;;;11.03;10.03;;;;;;;2.65;100.00;99152.25;5038304;28;20203;-79
2023/03/06 10:17:50;;;;;;;12.10;11.00;;;;;;;2.58;100.00;99159.19;5048857;28;20284;-80
2023/03/06 10:20:21;;;;;;;12.87;11.80;;;;;;;2.38;100.00;99172.22;5057403;28;20198;-79
2023/03/06 10:23:14;;;;;;;13.53;12.30;;;;;;;2.56;100.00;99172.97;5058307;28;20208;-79
2023/03/06 10:25:51;;;;;;;9.33;8.50;;;;;;;2.60;99.93;99192.69;5058625;28;20255;-80
2023/03/06 10:28:19;;;;;;;7.40;6.80;;;;;;;2.70;99.42;99214.09;5058867;28;20222;-80
2023/03/06 10:30:53;;;;;;;5.77;5.27;;;;;;;2.77;97.46;99249.22;5059111;28;20693;-80
2023/03/06 10:33:42;;;;;;;4.40;4.00;;;;;;;2.83;96.49;99276.69;5058545;28;20197;-80
2023/03/06 10:36:12;;;;;;;2.53;2.33;;;;;;;2.83;94.78;99311.03;5058168;28;20223;-79
2023/03/06 10:38:39;;;;;;;2.20;1.70;;;;;;;2.83;93.44;99352.25;5035253;28;20219;-80
2023/03/06 10:41:08;;;;;;;2.40;2.20;;;;;;;2.80;93.42;99369.50;5029135;28;20689;-81
2023/03/06 10:43:36;;;;;;;2.53;2.33;;;;;;;2.83;94.11;99375.47;5027783;28;20252;-80
2023/03/06 10:46:02;;;;;;;1.93;1.83;;;;;;;2.87;94.99;99358.25;5027362;28;20600;-80
2023/03/06 10:48:31;;;;;;;2.03;1.93;;;;;;;2.88;94.70;99362.56;5039219;28;20252;-79
2023/03/06 10:51:16;;;;;;;1.60;1.50;;;;;;;2.88;95.19;99360.84;5048936;28;20204;-79
2023/03/06 10:53:53;;;;;;;1.60;1.50;;;;;;;2.89;94.82;99359.13;5057673;28;20659;-79
2023/03/06 10:56:31;;;;;;;1.20;1.10;;;;;;;2.91;95.34;99359.97;5056850;28;20231;-81
2023/03/06 10:59:11;;;;;;;1.77;1.10;;;;;;;2.90;94.05;99373.72;5056905;28;20226;-80
2023/03/06 11:01:39;;;;;;;2.13;1.20;;;;;;;2.84;94.36;99373.75;5057229;28;20256;-80
2023/03/06 11:04:16;;;;;;;1.10;1.00;;;;;;;2.84;96.53;99350.56;5056734;28;20203;-81
2023/03/06 11:06:44;;;;;;;1.27;1.17;;;;;;;2.88;96.16;99339.38;5049520;28;20251;-81
2023/03/06 11:09:16;;;;;;;1.10;0.83;;;;;;;2.92;94.43;99354.81;5058073;28;20217;-80
2023/03/06 11:11:42;;;;;;;0.77;0.77;;;;;;;2.95;93.20;99392.59;5058309;28;20226;-81
2023/03/06 11:14:16;;;;;;;1.23;0.87;;;;;;;2.93;91.76;99428.69;5058937;28;20203;-81
2023/03/06 11:16:51;;;;;;;1.40;1.10;;;;;;;2.92;91.29;99450.16;5056350;28;20332;-81
2023/03/06 11:19:20;;;;;;;1.07;1.00;;;;;;;2.84;90.72;99476.84;5057719;28;20285;-81
2023/03/06 11:22:00;;;;;;;5.17;1.73;;;;;;;2.83;90.46;99493.16;5056594;28;20221;-81
2023/03/06 11:24:33;;;;;;;2.17;1.20;;;;;;;2.78;90.94;99499.19;5056432;28;20246;-81
2023/03/06 11:27:04;;;;;;;1.20;1.10;;;;;;;2.75;91.06;99490.59;5056032;28;20243;-82
2023/03/06 11:29:39;;;;;;;2.17;0.97;;;;;;;2.80;90.96;99488.03;5056104;28;20225;-81
2023/03/06 11:32:12;;;;;;;1.77;1.10;;;;;;;2.78;90.25;99508.63;5056287;28;20199;-82
2023/03/06 11:34:44;;;;;;;1.57;1.10;;;;;;;2.71;90.71;99507.78;5056581;28;20197;-81
2023/03/06 11:37:20;;;;;;;2.17;0.90;;;;;;;2.68;91.34;99502.66;5055389;28;20270;-82
2023/03/06 11:39:53;;;;;;;1.50;0.90;;;;;;;2.68;91.33;99484.63;5056142;28;20198;-81